Time;durP1;ratioP1;P1;durP2;ratioP2;P2;SDS_P1;SDS_P2;PMS_P1;PMS_P2;Temp;Humidity;BMP_temperature;BMP_pressure;BME280_temperature;BME280_humidity;BME280_pressure;Samples;Min_cycle;Max_cycle;Signal;HPM_P1;HPM_P2
2022/10/22 00:00:45;;;;;;;5.53;2.50;;;;;;;14.61;96.75;100936.44;5050189;28;20128;-50
2022/10/22 00:03:11;;;;;;;8.45;2.65;;;;;;;14.61;96.55;100944.19;5044381;28;20102;-49
2022/10/22 00:05:36;;;;;;;10.25;3.03;;;;;;;14.56;96.87;100938.09;5048626;28;21929;-51
2022/10/22 00:08:01;;;;;;;6.75;2.70;;;;;;;14.60;96.86;100942.47;5046320;28;20472;-48
2022/10/22 00:10:27;;;;;;;10.63;3.00;;;;;;;14.57;97.15;100939.84;5052343;28;20459;-50
2022/10/22 00:12:52;;;;;;;5.30;2.67;;;;;;;14.57;97.04;100943.31;5043575;28;20037;-46
2022/10/22 00:15:18;;;;;;;5.22;2.92;;;;;;;14.52;96.97;100950.13;5043974;28;20029;-51
2022/10/22 00:17:43;;;;;;;6.43;2.80;;;;;;;14.49;96.98;100943.19;5047661;28;20032;-51
2022/10/22 00:20:09;;;;;;;7.45;2.92;;;;;;;14.51;96.73;100939.75;5044693;28;20431;-50
2022/10/22 00:22:34;;;;;;;6.07;2.80;;;;;;;14.52;97.05;100946.69;5045263;28;20145;-50
2022/10/22 00:24:59;;;;;;;6.03;2.90;;;;;;;14.45;96.98;100949.16;5046315;28;20060;-52
2022/10/22 00:27:25;;;;;;;10.60;3.10;;;;;;;14.46;96.45;100947.44;5042606;28;20086;-48
2022/10/22 00:29:50;;;;;;;8.82;3.30;;;;;;;14.44;96.68;100942.25;5048813;28;20091;-48
2022/10/22 00:32:15;;;;;;;9.02;3.35;;;;;;;14.42;96.86;100940.47;5046714;28;20926;-49
2022/10/22 00:34:41;;;;;;;12.25;3.15;;;;;;;14.40;96.30;100943.03;5048235;28;20036;-50
2022/10/22 00:37:06;;;;;;;9.95;3.95;;;;;;;14.42;96.61;100943.03;5044948;28;20037;-48
2022/10/22 00:39:31;;;;;;;10.10;3.28;;;;;;;14.36;95.96;100940.38;5049671;28;20091;-49
2022/10/22 00:41:58;;;;;;;8.25;3.10;;;;;;;14.36;96.24;100942.97;5049981;28;20024;-50
2022/10/22 00:45:01;;;;;;;8.07;3.35;;;;;;;14.39;96.50;100940.44;5050284;28;20032;-50
2022/10/22 00:47:30;;;;;;;8.45;3.30;;;;;;;14.30;95.58;100945.47;5049224;28;20108;-50
2022/10/22 00:49:57;;;;;;;9.38;3.33;;;;;;;14.25;95.43;100947.97;5048435;28;20108;-51
2022/10/22 00:52:23;;;;;;;13.68;3.28;;;;;;;14.22;95.30;100955.72;5054606;28;20029;-48
2022/10/22 00:54:50;;;;;;;6.85;3.20;;;;;;;14.21;95.74;100946.22;5047929;28;20112;-52
2022/10/22 00:57:17;;;;;;;7.32;3.45;;;;;;;14.24;96.28;100943.66;5056253;28;20037;-50
2022/10/22 00:59:42;;;;;;;14.10;3.53;;;;;;;14.25;96.07;100942.81;5048481;28;20090;-48
2022/10/22 01:02:08;;;;;;;6.70;3.53;;;;;;;14.22;96.37;100940.19;5052159;28;20044;-49
2022/10/22 01:04:33;;;;;;;8.50;3.38;;;;;;;14.18;96.02;100943.56;5049743;28;20025;-50
2022/10/22 01:06:58;;;;;;;11.68;3.50;;;;;;;14.14;96.18;100941.81;5049911;28;20064;-50
2022/10/22 01:10:31;;;;;;;9.20;3.50;;;;;;;14.28;96.30;100940.28;5050109;28;20468;-50
2022/10/22 01:13:04;;;;;;;5.70;3.20;;;;;;;14.14;96.61;100934.06;5030351;28;20055;-49
2022/10/22 01:15:49;;;;;;;11.88;3.50;;;;;;;14.24;97.10;100941.06;5031723;28;20032;-51
2022/10/22 01:18:31;;;;;;;10.85;3.38;;;;;;;14.18;96.91;100943.56;5041752;28;20087;-50
2022/10/22 01:21:11;;;;;;;5.35;3.13;;;;;;;14.20;96.49;100949.66;5052191;28;20023;-50
2022/10/22 01:24:03;;;;;;;9.80;3.40;;;;;;;14.14;96.39;100936.63;5050491;28;20405;-50
2022/10/22 01:26:56;;;;;;;7.57;3.58;;;;;;;14.16;96.66;100942.69;5051592;28;20119;-48
2022/10/22 01:29:32;;;;;;;8.82;3.53;;;;;;;14.11;97.07;100934.84;5051669;28;20034;-50
2022/10/22 01:32:09;;;;;;;12.68;3.70;;;;;;;14.06;97.81;100935.63;5047000;28;20020;-50
2022/10/22 01:34:39;;;;;;;8.68;3.20;;;;;;;14.04;97.48;100934.75;5044101;28;20038;-49
2022/10/22 01:37:06;;;;;;;10.70;3.72;;;;;;;14.03;97.28;100926.13;5048484;28;20198;-49
2022/10/22 01:39:33;;;;;;;7.22;3.65;;;;;;;14.04;97.68;100937.34;5045138;28;20376;-48
2022/10/22 01:41:59;;;;;;;8.40;4.32;;;;;;;14.00;97.76;100926.06;5044743;28;20473;-46
2022/10/22 01:44:33;;;;;;;10.13;3.30;;;;;;;14.01;97.50;100932.97;5049442;28;20032;-48
2022/10/22 01:47:36;;;;;;;16.05;3.85;;;;;;;14.09;97.63;100943.44;5049508;28;20020;-50
2022/10/22 01:50:16;;;;;;;9.48;3.50;;;;;;;14.11;98.26;100941.75;5041955;28;20045;-51
2022/10/22 01:52:44;;;;;;;11.10;3.55;;;;;;;14.07;98.32;100937.38;5048823;28;20485;-48
2022/10/22 01:55:28;;;;;;;10.10;3.83;;;;;;;14.03;98.08;100936.47;5051034;28;20488;-49
2022/10/22 01:57:59;;;;;;;7.15;3.65;;;;;;;14.00;97.65;100935.53;5048073;28;20025;-49
2022/10/22 02:00:25;;;;;;;9.48;3.63;;;;;;;13.99;98.32;100936.41;5043245;28;20421;-49
2022/10/22 02:03:02;;;;;;;7.20;3.42;;;;;;;14.01;98.30;100937.28;5046711;28;20111;-49
2022/10/22 02:05:43;;;;;;;10.80;3.40;;;;;;;14.01;98.00;100937.28;5048414;28;20032;-49
2022/10/22 02:08:12;;;;;;;10.00;4.10;;;;;;;13.99;98.79;100937.25;5047100;28;20033;-50
2022/10/22 02:10:40;;;;;;;12.32;3.95;;;;;;;13.98;99.02;100939.81;5041317;28;20025;-49
2022/10/22 02:13:15;;;;;;;9.48;3.80;;;;;;;14.03;99.04;100933.03;5049047;28;20039;-50
2022/10/22 02:15:42;;;;;;;13.02;3.90;;;;;;;13.99;99.36;100938.97;5046732;28;20029;-50
2022/10/22 02:18:09;;;;;;;14.82;4.32;;;;;;;13.98;99.19;100939.81;5053344;28;20033;-49
2022/10/22 02:20:37;;;;;;;10.32;3.65;;;;;;;13.96;99.61;100937.22;5049189;28;20063;-50
2022/10/22 02:23:03;;;;;;;15.35;4.35;;;;;;;13.95;99.34;100933.78;5051506;28;20024;-48
2022/10/22 02:25:39;;;;;;;11.07;4.30;;;;;;;13.99;100.00;100932.09;5047862;28;20730;-49
2022/10/22 02:28:07;;;;;;;9.90;3.55;;;;;;;13.99;99.94;100931.22;5048425;28;20033;-49
2022/10/22 02:30:36;;;;;;;12.40;3.67;;;;;;;14.00;99.84;100930.38;5050736;28;20024;-49
2022/10/22 02:33:10;;;;;;;8.05;4.15;;;;;;;14.01;100.00;100929.53;5048607;28;20294;-49
2022/10/22 02:35:39;;;;;;;11.10;4.25;;;;;;;14.00;100.00;100927.78;5046382;28;20029;-50
2022/10/22 02:38:06;;;;;;;10.38;4.07;;;;;;;13.99;100.00;100933.81;5054914;28;20033;-50
2022/10/22 02:40:32;;;;;;;9.07;3.80;;;;;;;13.98;100.00;100930.34;5047389;28;20363;-49
2022/10/22 02:42:58;;;;;;;9.60;4.05;;;;;;;13.98;99.99;100929.50;5048454;28;20032;-50
2022/10/22 02:45:24;;;;;;;10.77;3.58;;;;;;;13.94;99.87;100937.19;5049562;28;20028;-50
2022/10/22 02:47:49;;;;;;;9.20;3.97;;;;;;;13.94;99.75;100929.44;5051762;28;20041;-51
2022/10/22 02:50:15;;;;;;;9.57;3.83;;;;;;;13.95;99.99;100931.19;5055631;28;20051;-49
2022/10/22 02:52:40;;;;;;;12.20;3.90;;;;;;;13.92;100.00;100936.28;5058734;28;20055;-50
2022/10/22 02:55:06;;;;;;;8.30;3.88;;;;;;;13.92;100.00;100941.47;5051776;28;20033;-51
2022/10/22 02:57:32;;;;;;;10.15;3.70;;;;;;;13.92;100.00;100944.06;5052408;28;20438;-48
2022/10/22 02:59:57;;;;;;;9.63;3.72;;;;;;;13.92;100.00;100935.44;5050141;28;20093;-48
2022/10/22 03:02:23;;;;;;;9.13;3.80;;;;;;;13.96;100.00;100937.22;5053453;28;20488;-49
2022/10/22 03:04:48;;;;;;;7.32;3.50;;;;;;;13.95;100.00;100933.78;5050179;28;20051;-49
2022/10/22 03:07:13;;;;;;;9.68;3.80;;;;;;;13.97;100.00;100941.53;5053513;28;20063;-46
2022/10/22 03:09:39;;;;;;;11.70;3.80;;;;;;;13.93;100.00;100939.75;5051589;28;20079;-50
2022/10/22 03:12:04;;;;;;;10.55;3.50;;;;;;;13.93;100.00;100945.78;5050059;28;20135;-48
2022/10/22 03:14:30;;;;;;;7.95;3.58;;;;;;;13.95;100.00;100946.69;5054162;28;20505;-46
2022/10/22 03:16:55;;;;;;;9.75;3.65;;;;;;;13.95;100.00;100938.03;5057579;28;20438;-50
2022/10/22 03:19:20;;;;;;;9.65;3.90;;;;;;;13.95;100.00;100949.28;5049894;28;20433;-47
2022/10/22 03:21:53;;;;;;;9.93;4.07;;;;;;;13.98;100.00;100942.41;5052151;28;20067;-52
2022/10/22 03:24:30;;;;;;;10.20;3.97;;;;;;;13.95;100.00;100948.38;5054645;28;20031;-49
2022/10/22 03:26:56;;;;;;;12.48;3.78;;;;;;;13.91;100.00;100951.78;5050097;28;20515;-46
2022/10/22 03:29:24;;;;;;;11.18;3.50;;;;;;;13.93;100.00;100950.09;5053266;28;20476;-50
2022/10/22 03:31:51;;;;;;;13.70;3.70;;;;;;;13.94;100.00;100952.69;5056550;28;20052;-50
2022/10/22 03:34:16;;;;;;;10.52;3.70;;;;;;;13.93;100.00;100956.13;5056422;28;20093;-49
2022/10/22 03:36:42;;;;;;;12.68;3.90;;;;;;;13.94;100.00;100962.16;5049719;28;20659;-48
2022/10/22 03:39:08;;;;;;;12.55;3.75;;;;;;;13.90;100.00;100966.44;5048823;28;20039;-50
2022/10/22 03:41:34;;;;;;;10.65;4.03;;;;;;;13.88;100.00;100960.34;5056543;28;20067;-51
2022/10/22 03:44:01;;;;;;;12.02;3.50;;;;;;;13.88;100.00;100970.69;5048889;28;20028;-49
2022/10/22 03:46:27;;;;;;;11.90;3.33;;;;;;;13.92;100.00;100967.31;5051976;28;20082;-50
2022/10/22 03:48:52;;;;;;;8.02;3.17;;;;;;;13.92;100.00;100969.03;5048463;28;20024;-47
2022/10/22 03:51:17;;;;;;;8.82;3.53;;;;;;;13.92;100.00;100975.06;5051014;28;20107;-52
2022/10/22 03:53:43;;;;;;;11.38;3.65;;;;;;;13.90;100.00;100975.91;5052922;28;20082;-51
2022/10/22 03:56:10;;;;;;;9.98;3.70;;;;;;;13.91;100.00;100978.50;5047483;28;20037;-47
2022/10/22 03:58:37;;;;;;;9.85;3.50;;;;;;;13.92;100.00;100974.22;5053446;28;20033;-48
2022/10/22 04:01:08;;;;;;;8.20;3.30;;;;;;;13.92;100.00;100985.41;5051096;28;20122;-52
2022/10/22 04:03:34;;;;;;;9.82;4.00;;;;;;;13.90;100.00;100984.53;5054348;28;20112;-50
2022/10/22 04:06:04;;;;;;;13.15;4.40;;;;;;;13.89;100.00;100987.97;5053398;28;20117;-48
2022/10/22 04:08:30;;;;;;;12.30;3.85;;;;;;;13.91;100.00;100991.44;5052990;28;20020;-51
2022/10/22 04:10:55;;;;;;;11.77;4.25;;;;;;;13.91;100.00;100994.03;5051330;28;20032;-49
2022/10/22 04:13:21;;;;;;;10.45;3.72;;;;;;;13.88;100.00;100988.78;5048373;28;20021;-49
2022/10/22 04:15:46;;;;;;;8.23;3.42;;;;;;;13.92;100.00;100989.72;5046545;28;20033;-46
2022/10/22 04:18:11;;;;;;;12.02;4.28;;;;;;;13.92;100.00;100992.31;5055480;28;20024;-49
2022/10/22 04:20:36;;;;;;;10.27;3.90;;;;;;;13.90;100.00;100997.44;5048671;28;20028;-49
2022/10/22 04:23:02;;;;;;;11.18;3.90;;;;;;;13.87;100.00;100986.19;5052411;28;20099;-50
2022/10/22 04:25:28;;;;;;;14.40;4.60;;;;;;;13.90;100.00;100994.88;5050170;28;20122;-49
2022/10/22 04:27:53;;;;;;;14.77;3.95;;;;;;;13.89;100.00;100990.56;5055108;28;20036;-47
2022/10/22 04:30:19;;;;;;;14.52;4.30;;;;;;;13.91;100.00;100991.44;5049525;28;20060;-50
2022/10/22 04:32:44;;;;;;;11.15;3.80;;;;;;;13.85;100.00;100993.06;5054394;28;20031;-48
2022/10/22 04:35:09;;;;;;;12.50;4.07;;;;;;;13.87;100.00;100989.63;5051575;28;20123;-48
2022/10/22 04:37:35;;;;;;;18.83;4.30;;;;;;;13.88;100.00;100990.50;5049743;28;20032;-49
2022/10/22 04:40:00;;;;;;;15.45;4.13;;;;;;;13.88;100.00;100988.78;5050873;28;20040;-48
2022/10/22 04:42:25;;;;;;;15.73;3.85;;;;;;;13.88;100.00;100988.78;5047422;28;20064;-48
2022/10/22 04:44:51;;;;;;;15.20;4.32;;;;;;;13.87;100.00;100988.75;5050876;28;20052;-48
2022/10/22 04:47:16;;;;;;;13.65;4.10;;;;;;;13.86;100.00;100987.91;5051948;28;20064;-50
2022/10/22 04:49:41;;;;;;;17.48;3.90;;;;;;;13.86;100.00;100994.78;5049577;28;20648;-46
2022/10/22 04:52:07;;;;;;;8.05;3.33;;;;;;;13.87;100.00;100997.38;5052659;28;20036;-47
2022/10/22 04:54:32;;;;;;;14.30;4.30;;;;;;;13.86;100.00;101002.53;5049272;28;20064;-51
2022/10/22 04:56:57;;;;;;;12.68;4.07;;;;;;;13.89;100.00;101005.16;5052522;28;20106;-48
2022/10/22 04:59:23;;;;;;;12.07;3.65;;;;;;;13.88;100.00;101004.28;5046378;28;20041;-50
2022/10/22 05:01:48;;;;;;;14.77;3.80;;;;;;;13.90;100.00;101010.38;5050597;28;20087;-46
2022/10/22 05:04:18;;;;;;;11.80;3.58;;;;;;;13.90;100.00;101007.78;5051738;28;20021;-49
2022/10/22 05:06:44;;;;;;;15.52;4.30;;;;;;;13.90;100.00;101012.97;5050278;28;20032;-49
2022/10/22 05:09:13;;;;;;;12.43;3.40;;;;;;;13.90;100.00;101015.56;5050383;28;20537;-49
2022/10/22 05:11:47;;;;;;;14.02;4.15;;;;;;;13.91;100.00;101011.25;5051650;28;20534;-51
2022/10/22 05:14:15;;;;;;;11.55;3.33;;;;;;;13.90;100.00;101012.97;5051306;28;20456;-46
2022/10/22 05:16:41;;;;;;;12.47;3.73;;;;;;;13.91;100.00;101012.13;5054115;28;20040;-50
2022/10/22 05:19:07;;;;;;;15.02;3.80;;;;;;;13.88;100.00;101018.94;5049674;28;20028;-51
2022/10/22 05:21:33;;;;;;;13.32;3.65;;;;;;;13.88;100.00;101011.19;5050183;28;20384;-50
2022/10/22 05:23:58;;;;;;;10.00;3.55;;;;;;;13.90;100.00;101020.72;5051986;28;20028;-47
2022/10/22 05:26:25;;;;;;;20.73;4.20;;;;;;;13.91;100.00;101021.59;5051994;28;20074;-47
2022/10/22 05:28:51;;;;;;;11.88;3.50;;;;;;;13.90;100.00;101023.31;5050151;28;20028;-50
2022/10/22 05:31:17;;;;;;;10.15;3.45;;;;;;;13.90;100.00;101015.56;5048085;28;20020;-49
2022/10/22 05:33:44;;;;;;;14.15;3.28;;;;;;;13.92;100.00;101015.56;5045826;28;20377;-50
2022/10/22 05:36:14;;;;;;;15.65;3.38;;;;;;;13.93;100.00;101019.88;5051212;28;20039;-48
2022/10/22 05:38:40;;;;;;;10.70;3.50;;;;;;;13.92;100.00;101018.16;5051031;28;20112;-51
2022/10/22 05:41:19;;;;;;;11.35;3.50;;;;;;;13.95;100.00;101013.91;5050994;28;20116;-50
2022/10/22 05:43:45;;;;;;;13.85;3.30;;;;;;;13.92;100.00;101021.59;5053573;28;20051;-50
2022/10/22 05:46:22;;;;;;;11.35;3.70;;;;;;;13.95;100.00;101031.13;5053475;28;20033;-52
2022/10/22 05:48:55;;;;;;;14.43;3.97;;;;;;;13.91;100.00;101030.22;5051307;28;20507;-46
2022/10/22 05:51:21;;;;;;;12.70;3.60;;;;;;;13.90;100.00;101033.66;5052360;28;20385;-49
2022/10/22 05:53:53;;;;;;;9.90;3.40;;;;;;;13.91;100.00;101037.97;5040858;28;20389;-48
2022/10/22 05:56:20;;;;;;;12.52;3.50;;;;;;;13.92;100.00;101044.88;5046657;28;20036;-52
2022/10/22 05:58:46;;;;;;;12.05;3.80;;;;;;;13.93;100.00;101035.41;5043908;28;20210;-51
2022/10/22 06:01:26;;;;;;;12.40;3.10;;;;;;;13.94;100.00;101045.75;5045413;28;20056;-50
2022/10/22 06:03:57;;;;;;;13.18;2.90;;;;;;;13.95;100.00;101041.44;5045054;28;20087;-47
2022/10/22 06:06:33;;;;;;;12.68;2.72;;;;;;;13.95;100.00;101056.97;5045767;28;20024;-50
2022/10/22 06:09:05;;;;;;;11.05;3.00;;;;;;;13.93;100.00;101054.38;5048438;28;20037;-48
2022/10/22 06:11:31;;;;;;;10.07;3.28;;;;;;;13.89;100.00;101052.59;5040911;28;20056;-49
2022/10/22 06:13:57;;;;;;;9.35;2.92;;;;;;;13.91;100.00;101061.22;5040319;28;20063;-48
2022/10/22 06:16:22;;;;;;;11.23;2.90;;;;;;;13.91;100.00;101065.53;5042669;28;20031;-50
2022/10/22 06:18:48;;;;;;;13.10;2.90;;;;;;;13.91;100.00;101068.97;5043732;28;20031;-50
2022/10/22 06:21:15;;;;;;;13.13;3.22;;;;;;;13.91;100.00;101068.13;5047000;28;20029;-46
2022/10/22 06:23:41;;;;;;;11.23;2.80;;;;;;;13.94;100.00;101081.06;5048090;28;20754;-49
2022/10/22 06:26:07;;;;;;;10.95;2.60;;;;;;;13.90;100.00;101076.72;5044645;28;20032;-48
2022/10/22 06:28:33;;;;;;;13.27;2.97;;;;;;;13.91;100.00;101083.63;5048589;28;20043;-48
2022/10/22 06:31:00;;;;;;;15.00;2.83;;;;;;;13.89;100.00;101088.78;5046854;28;20033;-49
2022/10/22 06:33:27;;;;;;;11.35;2.67;;;;;;;13.89;100.00;101098.22;5049611;28;20061;-50
2022/10/22 06:35:52;;;;;;;10.60;2.60;;;;;;;13.89;100.00;101095.63;5052783;28;20107;-49
2022/10/22 06:38:18;;;;;;;8.30;2.60;;;;;;;13.89;100.00;101100.81;5046413;28;20129;-47
2022/10/22 06:40:44;;;;;;;11.57;2.83;;;;;;;13.89;100.00;101103.38;5049877;28;20480;-48
2022/10/22 06:43:13;;;;;;;8.93;2.55;;;;;;;13.90;100.00;101111.19;5047984;28;20044;-48
2022/10/22 06:45:38;;;;;;;;;;;;;;;14.03;100.00;101112.28;5048003;28;20041;-50
2022/10/22 06:48:04;;;;;;;9.32;2.60;;;;;;;13.92;100.00;101112.09;5045427;28;20180;-49
2022/10/22 06:50:30;;;;;;;9.05;2.20;;;;;;;13.94;100.00;101122.44;5049090;28;20043;-52
2022/10/22 06:52:56;;;;;;;7.68;2.03;;;;;;;13.92;100.00;101125.00;5046218;28;20033;-49
2022/10/22 06:55:22;;;;;;;9.30;2.45;;;;;;;13.91;100.00;101123.28;5047349;28;20075;-60
2022/10/22 06:57:47;;;;;;;10.52;2.70;;;;;;;13.93;100.00;101131.03;5050492;28;20064;-52
2022/10/22 07:00:13;;;;;;;10.02;2.70;;;;;;;13.93;100.00;101142.25;5048698;28;20476;-52
2022/10/22 07:02:38;;;;;;;11.15;2.63;;;;;;;13.89;100.00;101143.06;5044898;28;20523;-55
2022/10/22 07:05:04;;;;;;;11.55;2.58;;;;;;;13.92;100.00;101148.28;5047736;28;20033;-55
2022/10/22 07:07:29;;;;;;;15.88;2.85;;;;;;;13.91;100.00;101146.53;5044653;28;20032;-54
2022/10/22 07:09:55;;;;;;;10.10;2.50;;;;;;;13.91;100.00;101145.66;5049633;28;20649;-54
2022/10/22 07:12:20;;;;;;;8.65;2.03;;;;;;;13.90;100.00;101151.69;5043057;28;20556;-50
2022/10/22 07:14:45;;;;;;;13.30;2.53;;;;;;;13.93;100.00;101154.31;5047137;28;20499;-55
2022/10/22 07:17:10;;;;;;;10.88;2.55;;;;;;;13.94;100.00;101159.50;5051153;28;20519;-49
2022/10/22 07:19:36;;;;;;;10.93;2.60;;;;;;;13.97;100.00;101163.00;5043293;28;20475;-55
2022/10/22 07:22:01;;;;;;;8.32;2.50;;;;;;;13.92;100.00;101166.38;5047005;28;21676;-50
2022/10/22 07:24:27;;;;;;;11.80;2.15;;;;;;;13.97;100.00;101165.59;5046426;28;20032;-51
2022/10/22 07:26:52;;;;;;;10.10;2.28;;;;;;;13.99;100.00;101169.06;5044358;28;20115;-50
2022/10/22 07:29:17;;;;;;;9.07;2.20;;;;;;;14.00;100.00;101163.06;5045941;28;20409;-53
2022/10/22 07:31:43;;;;;;;9.05;2.30;;;;;;;14.00;100.00;101168.22;5050031;28;20029;-53
2022/10/22 07:34:09;;;;;;;11.00;2.30;;;;;;;14.00;100.00;101178.56;5049012;28;20378;-50
2022/10/22 07:36:34;;;;;;;10.93;2.30;;;;;;;14.04;100.00;101180.38;5052263;28;20041;-49
2022/10/22 07:39:00;;;;;;;9.65;2.30;;;;;;;14.03;100.00;101179.50;5059741;28;20059;-50
2022/10/22 07:41:27;;;;;;;9.55;2.10;;;;;;;14.06;100.00;101187.31;5048994;28;20154;-51
2022/10/22 07:43:52;;;;;;;8.38;2.15;;;;;;;14.10;100.00;101180.50;5050143;28;20112;-53
2022/10/22 07:46:19;;;;;;;8.88;2.72;;;;;;;14.15;100.00;101184.03;5048937;28;20051;-54
2022/10/22 07:48:44;;;;;;;12.57;1.95;;;;;;;14.18;100.00;101186.66;5047674;28;20068;-51
2022/10/22 07:51:10;;;;;;;10.88;2.30;;;;;;;14.21;100.00;101176.41;5049788;28;20543;-51
2022/10/22 07:53:35;;;;;;;10.48;2.40;;;;;;;14.26;100.00;101182.53;5044823;28;20044;-53
2022/10/22 07:56:01;;;;;;;9.40;2.20;;;;;;;14.30;100.00;101192.06;5048940;28;20051;-50
2022/10/22 07:58:26;;;;;;;9.75;2.00;;;;;;;14.36;100.00;101194.75;5046607;28;20155;-52
2022/10/22 08:00:56;;;;;;;9.52;2.15;;;;;;;14.44;100.00;101189.75;5049485;28;20053;-52
2022/10/22 08:03:22;;;;;;;13.27;2.92;;;;;;;14.47;100.00;101198.44;5054449;28;20459;-52
2022/10/22 08:05:47;;;;;;;9.55;2.05;;;;;;;14.54;100.00;101202.00;5056197;28;20024;-52
2022/10/22 08:08:15;;;;;;;7.97;1.73;;;;;;;14.63;100.00;101206.50;5053653;28;20458;-52
2022/10/22 08:10:41;;;;;;;13.50;2.40;;;;;;;14.71;100.00;101204.88;5059126;28;20025;-50
2022/10/22 08:13:07;;;;;;;10.05;2.05;;;;;;;14.85;100.00;101210.28;5057748;28;20029;-55
2022/10/22 08:15:33;;;;;;;7.57;1.70;;;;;;;14.92;99.57;101206.94;5053800;28;20568;-53
2022/10/22 08:17:58;;;;;;;12.48;2.85;;;;;;;14.99;99.23;101225.22;5054310;28;20037;-50
2022/10/22 08:20:24;;;;;;;6.97;1.88;;;;;;;15.09;98.05;101225.34;5055521;28;20029;-53
2022/10/22 08:22:49;;;;;;;13.07;2.00;;;;;;;15.16;97.26;101217.66;5051823;28;20063;-54
2022/10/22 08:25:16;;;;;;;9.55;2.10;;;;;;;15.21;97.16;101225.53;5055169;28;20143;-53
2022/10/22 08:27:42;;;;;;;7.95;2.22;;;;;;;15.32;97.00;101223.09;5058980;28;20090;-52
2022/10/22 08:30:08;;;;;;;10.45;1.85;;;;;;;15.41;96.88;101228.38;5052421;28;20032;-53
2022/10/22 08:32:34;;;;;;;12.05;2.20;;;;;;;15.55;96.24;101230.34;5052063;28;20029;-52
2022/10/22 08:34:59;;;;;;;8.63;2.20;;;;;;;15.53;95.32;101228.56;5053223;28;20056;-54
2022/10/22 08:37:24;;;;;;;8.25;2.30;;;;;;;15.56;94.44;101247.63;5056603;28;20120;-52
2022/10/22 08:39:50;;;;;;;11.85;2.05;;;;;;;15.51;95.04;101256.19;5051212;28;20096;-50
2022/10/22 08:42:24;;;;;;;13.90;2.22;;;;;;;15.48;95.14;101254.44;5052568;28;20037;-53
2022/10/22 08:45:21;;;;;;;9.73;1.98;;;;;;;15.49;95.97;101257.91;5055554;28;20039;-53
2022/10/22 08:48:05;;;;;;;9.90;1.95;;;;;;;15.43;95.33;101263.84;5058446;28;20029;-54
2022/10/22 08:50:42;;;;;;;10.85;1.90;;;;;;;15.45;95.48;101275.09;5055513;28;20061;-55
2022/10/22 08:53:26;;;;;;;11.48;1.95;;;;;;;15.45;96.02;101266.47;5054252;28;20021;-51
2022/10/22 08:55:53;;;;;;;7.57;1.92;;;;;;;15.43;96.21;101273.34;5056788;28;20469;-54
2022/10/22 08:58:24;;;;;;;9.73;1.90;;;;;;;15.42;96.20;101280.25;5056228;28;20028;-51
2022/10/22 09:00:54;;;;;;;14.20;2.13;;;;;;;15.40;95.95;101276.75;5059334;28;20044;-53
2022/10/22 09:03:41;;;;;;;8.23;1.85;;;;;;;15.41;96.22;101281.13;5053599;28;20107;-52
2022/10/22 09:06:14;;;;;;;9.27;2.28;;;;;;;15.39;96.65;101284.53;5057273;28;20877;-51
2022/10/22 09:08:42;;;;;;;10.57;2.00;;;;;;;15.38;96.73;101293.16;5053440;28;20017;-52
2022/10/22 09:11:26;;;;;;;11.20;1.63;;;;;;;15.39;96.87;101287.97;5050671;28;20075;-53
2022/10/22 09:13:53;;;;;;;10.27;2.30;;;;;;;15.37;96.80;101292.28;5055827;28;20452;-53
2022/10/22 09:16:32;;;;;;;15.55;2.20;;;;;;;15.40;96.49;101296.63;5046817;28;20039;-54
2022/10/22 09:19:22;;;;;;;7.72;1.83;;;;;;;15.39;96.57;101306.13;5050568;28;20499;-54
2022/10/22 09:22:20;;;;;;;10.23;2.55;;;;;;;15.41;96.98;101304.44;5044971;28;20453;-54
2022/10/22 09:24:52;;;;;;;13.60;2.20;;;;;;;15.42;97.14;101311.38;5050976;28;20108;-53
2022/10/22 09:27:22;;;;;;;11.25;2.05;;;;;;;15.41;96.02;101307.03;5053298;28;20300;-52
2022/10/22 09:29:48;;;;;;;8.77;1.80;;;;;;;15.40;96.75;101313.03;5051456;28;20130;-52
2022/10/22 09:32:14;;;;;;;10.80;1.95;;;;;;;15.40;96.73;101318.22;5047275;28;20033;-50
2022/10/22 09:34:43;;;;;;;8.15;1.83;;;;;;;15.41;96.40;101316.50;5048672;28;20033;-52
2022/10/22 09:37:09;;;;;;;16.58;2.42;;;;;;;15.43;96.58;101328.66;5037921;28;20039;-53
2022/10/22 09:39:43;;;;;;;15.48;2.10;;;;;;;15.45;96.83;101331.25;5042459;28;21365;-51
2022/10/22 09:42:10;;;;;;;11.88;2.10;;;;;;;15.42;96.56;101334.69;5038928;28;20056;-50
2022/10/22 09:44:36;;;;;;;7.35;1.92;;;;;;;15.43;96.60;101331.25;5041461;28;20028;-54
2022/10/22 09:47:06;;;;;;;12.38;2.55;;;;;;;15.45;96.28;101334.72;5049341;28;20056;-54
2022/10/22 09:49:34;;;;;;;9.65;2.05;;;;;;;15.46;97.04;101339.03;5043745;28;20056;-52
2022/10/22 09:52:00;;;;;;;12.15;2.15;;;;;;;15.48;96.58;101346.88;5051666;28;20027;-54
2022/10/22 09:54:32;;;;;;;12.82;2.20;;;;;;;15.49;95.79;101344.28;5055209;28;20024;-53
2022/10/22 09:57:09;;;;;;;11.85;2.60;;;;;;;15.48;95.72;101352.91;5050593;28;20449;-53
2022/10/22 09:59:40;;;;;;;13.55;2.20;;;;;;;15.47;95.91;101358.97;5054120;28;20035;-54
2022/10/22 10:02:25;;;;;;;8.27;2.40;;;;;;;15.47;95.98;101364.13;5050795;28;20064;-53
2022/10/22 10:04:55;;;;;;;7.75;1.98;;;;;;;15.50;95.86;101376.25;5056945;28;20063;-54
2022/10/22 10:07:24;;;;;;;16.48;2.30;;;;;;;15.49;96.20;101377.97;5053579;28;20694;-54
2022/10/22 10:09:51;;;;;;;8.80;1.95;;;;;;;15.49;96.36;101377.97;5053251;28;20035;-48
2022/10/22 10:12:47;;;;;;;12.73;2.50;;;;;;;15.52;96.11;101378.00;5048930;28;20807;-54
2022/10/22 10:15:21;;;;;;;12.35;2.17;;;;;;;15.49;95.93;101380.56;5050062;28;20124;-53
2022/10/22 10:17:59;;;;;;;12.23;2.60;;;;;;;15.51;96.42;101384.06;5051358;28;20485;-53
2022/10/22 10:20:29;;;;;;;12.67;2.30;;;;;;;15.53;97.03;101384.97;5051863;28;20042;-53
2022/10/22 10:23:17;;;;;;;11.52;2.40;;;;;;;15.59;96.95;101384.16;5051918;28;20284;-52
2022/10/22 10:26:10;;;;;;;12.05;2.20;;;;;;;15.66;96.03;101390.38;5051231;28;20028;-52
2022/10/22 10:28:38;;;;;;;7.43;1.77;;;;;;;15.69;96.10;101390.41;5051744;28;21355;-50
2022/10/22 10:31:48;;;;;;;7.18;2.03;;;;;;;15.75;96.01;101395.69;5047776;28;20499;-50
2022/10/22 10:34:33;;;;;;;10.80;2.15;;;;;;;15.85;95.93;101407.09;5050857;28;20050;-51
2022/10/22 10:37:18;;;;;;;10.90;2.20;;;;;;;15.98;95.93;101401.22;5051878;28;20052;-52
2022/10/22 10:40:00;;;;;;;13.90;3.00;;;;;;;16.07;95.28;101394.44;5050522;28;20797;-48
2022/10/22 10:42:38;;;;;;;15.75;2.22;;;;;;;16.20;95.26;101394.59;5050230;28;20032;-53
2022/10/22 10:45:19;;;;;;;18.05;2.55;;;;;;;16.32;95.03;101397.38;5049383;28;20029;-53
2022/10/22 10:48:16;;;;;;;11.15;2.08;;;;;;;16.43;94.05;101402.69;5047427;28;20182;-54
2022/10/22 10:51:14;;;;;;;12.90;2.40;;;;;;;16.52;94.08;101395.03;5052149;28;20040;-51
2022/10/22 10:53:54;;;;;;;8.23;2.17;;;;;;;16.61;92.55;101406.38;5040681;28;20576;-53
2022/10/22 10:56:26;;;;;;;13.45;2.45;;;;;;;16.67;90.93;101403.00;5052117;28;20461;-54
2022/10/22 10:59:28;;;;;;;11.10;2.15;;;;;;;16.76;92.33;101402.28;5052518;28;20040;-53
2022/10/22 11:02:26;;;;;;;10.55;2.42;;;;;;;16.80;90.93;101406.63;5050662;28;20051;-54
2022/10/22 11:05:05;;;;;;;16.23;2.53;;;;;;;16.79;90.43;101400.56;5050515;28;20484;-53
2022/10/22 11:07:37;;;;;;;12.63;2.53;;;;;;;16.78;90.92;101396.22;5057967;28;20040;-51
2022/10/22 11:10:37;;;;;;;10.55;2.10;;;;;;;16.81;91.03;101406.66;5058497;28;20553;-53
2022/10/22 11:13:19;;;;;;;10.10;2.13;;;;;;;16.84;91.56;101400.63;5058628;28;20528;-54
2022/10/22 11:15:52;;;;;;;9.93;2.03;;;;;;;16.88;90.93;101407.59;5052475;28;20048;-52
2022/10/22 11:18:27;;;;;;;8.10;2.10;;;;;;;16.95;91.07;101414.59;5057861;28;20035;-53
2022/10/22 11:21:06;;;;;;;7.18;2.22;;;;;;;16.96;89.42;101411.16;5056738;28;20032;-50
2022/10/22 11:23:40;;;;;;;10.35;2.40;;;;;;;16.95;89.56;101414.59;5057922;28;20033;-56
2022/10/22 11:26:14;;;;;;;15.35;2.50;;;;;;;16.89;89.46;101407.63;5054443;28;20428;-48
2022/10/22 11:28:44;;;;;;;11.38;2.53;;;;;;;16.87;89.18;101404.13;5050960;28;20135;-47
2022/10/22 11:31:17;;;;;;;13.32;2.88;;;;;;;16.90;88.34;101408.47;5062345;28;20020;-50